Willisville, Illinois
Current Conditions -  °F | °C
As of 2:15 AM on Tuesday 21 Oct 2014 (Local Time) from KSAR Reporting Station
Clear Clear  
Wind Chill: 52°   Ceiling: Unl
Heat Index: 52°   Visibility: 10mi
Dew Point: 44°   Wind: 3mph
Humidity: 74%   Direction: 270°W
Pressure: 30.04"   Gusts: NA
Location:  37.98°N, 89.59°W
Report Text: KSAR 210715Z AUTO 27003KT 10SM CLR 11/07 A3004 RMK AO2 T01100065
Loading
Personal Weather Stations






























Interactive Weather Map
Tropical Storm Tracking
New forecast layout! Learn more

10-Day Weather Forecast

Advertisements
Track Severe Weather on mobile